Terminal Aerodrome Forecast
Issued by NWS

Home | Current Version | Previous Version | Text Only | Print | Product List | Glossary On
Versions: 1 2 3 4 5 6 7 8 9 10 11 12
985
FTUS44 KSJT 220520
TAFBBD
TAF
KBBD 220520Z 2206/2306 VRB06KT P6SM SKC
     FM221000 33011KT P6SM SCT250
     FM221800 01011KT P6SM SKC
     FM230000 VRB06KT P6SM SKC
      AMD NOT SKED=

USA.gov is the U.S. government's official web portal to all federal, state and local government web resources and services.